Blairsden-graeagle, California
Current Conditions -  °F | °C
As of 12:52 AM on Sunday 21 Dec 2014 (Local Time) from KBLU Reporting Station
Light Rain Light Rain  
Wind Chill: 36°   Ceiling: 300
Heat Index: 41°   Visibility: 0.75mi
Dew Point: 39°   Wind: 7mph
Humidity: 93%   Direction: 150°SSE
Pressure: 30.28"   Gusts: NA
Location:  39.82°N, 120.66°W
Report Text: KBLU 210852Z AUTO 15006KT 3/4SM -RA BR VV003 05/04 A3028 RMK AO2 RAB44 SLP241 P0002 60006 T00500039 51002
Loading
Personal Weather Stations






























Interactive Weather Map New forecast layout! Learn more

10-Day Weather Forecast

Advertisements
Track Severe Weather on mobile